sensor_id;sensor_type;location;lat;lon;timestamp;P1;durP1;ratioP1;P2;durP2;ratioP2
21564;SDS011;10943;48.738;9.320;2022-11-03T00:00:15;19.30;;;8.00;;
21564;SDS011;10943;48.738;9.320;2022-11-03T00:02:43;19.33;;;7.95;;
21564;SDS011;10943;48.738;9.320;2022-11-03T00:05:10;16.70;;;7.57;;
21564;SDS011;10943;48.738;9.320;2022-11-03T00:08:05;16.10;;;6.75;;
21564;SDS011;10943;48.738;9.320;2022-11-03T00:11:23;16.95;;;7.43;;
21564;SDS011;10943;48.738;9.320;2022-11-03T00:13:53;16.75;;;7.43;;
21564;SDS011;10943;48.738;9.320;2022-11-03T00:17:19;15.82;;;6.72;;
21564;SDS011;10943;48.738;9.320;2022-11-03T00:19:49;15.90;;;7.07;;
21564;SDS011;10943;48.738;9.320;2022-11-03T00:22:17;17.73;;;7.85;;
21564;SDS011;10943;48.738;9.320;2022-11-03T00:24:45;16.90;;;7.40;;
21564;SDS011;10943;48.738;9.320;2022-11-03T00:27:16;21.08;;;7.97;;
21564;SDS011;10943;48.738;9.320;2022-11-03T00:29:45;18.95;;;7.32;;
21564;SDS011;10943;48.738;9.320;2022-11-03T00:32:23;15.77;;;7.57;;
21564;SDS011;10943;48.738;9.320;2022-11-03T00:34:53;15.43;;;6.95;;
21564;SDS011;10943;48.738;9.320;2022-11-03T00:37:29;21.25;;;8.13;;
21564;SDS011;10943;48.738;9.320;2022-11-03T00:40:04;15.35;;;7.40;;
21564;SDS011;10943;48.738;9.320;2022-11-03T00:42:38;18.80;;;7.82;;
21564;SDS011;10943;48.738;9.320;2022-11-03T00:45:12;20.52;;;7.65;;
21564;SDS011;10943;48.738;9.320;2022-11-03T00:47:44;17.40;;;7.05;;
21564;SDS011;10943;48.738;9.320;2022-11-03T00:51:25;17.85;;;6.07;;
21564;SDS011;10943;48.738;9.320;2022-11-03T00:54:02;15.93;;;7.55;;
21564;SDS011;10943;48.738;9.320;2022-11-03T00:56:41;17.35;;;6.60;;
21564;SDS011;10943;48.738;9.320;2022-11-03T00:59:11;14.98;;;7.28;;
21564;SDS011;10943;48.738;9.320;2022-11-03T01:01:42;17.90;;;6.90;;
21564;SDS011;10943;48.738;9.320;2022-11-03T01:04:46;17.88;;;7.38;;
21564;SDS011;10943;48.738;9.320;2022-11-03T01:07:34;15.95;;;7.40;;
21564;SDS011;10943;48.738;9.320;2022-11-03T01:10:02;18.05;;;7.40;;
21564;SDS011;10943;48.738;9.320;2022-11-03T01:12:48;18.58;;;7.25;;
21564;SDS011;10943;48.738;9.320;2022-11-03T01:15:28;14.95;;;7.03;;
21564;SDS011;10943;48.738;9.320;2022-11-03T01:18:00;17.88;;;7.80;;
21564;SDS011;10943;48.738;9.320;2022-11-03T01:20:28;13.10;;;6.72;;
21564;SDS011;10943;48.738;9.320;2022-11-03T01:22:59;15.93;;;6.80;;
21564;SDS011;10943;48.738;9.320;2022-11-03T01:25:30;17.20;;;6.95;;
21564;SDS011;10943;48.738;9.320;2022-11-03T01:28:22;11.50;;;6.70;;
21564;SDS011;10943;48.738;9.320;2022-11-03T01:31:13;12.40;;;6.10;;
21564;SDS011;10943;48.738;9.320;2022-11-03T01:34:17;17.13;;;6.38;;
21564;SDS011;10943;48.738;9.320;2022-11-03T01:37:21;16.02;;;6.25;;
21564;SDS011;10943;48.738;9.320;2022-11-03T01:39:58;16.63;;;6.82;;
21564;SDS011;10943;48.738;9.320;2022-11-03T01:42:33;15.18;;;6.57;;
21564;SDS011;10943;48.738;9.320;2022-11-03T01:45:19;13.52;;;7.25;;
21564;SDS011;10943;48.738;9.320;2022-11-03T01:47:51;14.07;;;6.88;;
21564;SDS011;10943;48.738;9.320;2022-11-03T01:50:22;14.48;;;6.75;;
21564;SDS011;10943;48.738;9.320;2022-11-03T01:52:55;19.25;;;7.50;;
21564;SDS011;10943;48.738;9.320;2022-11-03T01:55:41;13.90;;;7.47;;
21564;SDS011;10943;48.738;9.320;2022-11-03T01:58:18;16.25;;;7.18;;
21564;SDS011;10943;48.738;9.320;2022-11-03T02:00:54;18.02;;;6.65;;
21564;SDS011;10943;48.738;9.320;2022-11-03T02:03:31;17.08;;;6.55;;
21564;SDS011;10943;48.738;9.320;2022-11-03T02:06:09;20.58;;;7.57;;
21564;SDS011;10943;48.738;9.320;2022-11-03T02:08:49;17.33;;;7.47;;
21564;SDS011;10943;48.738;9.320;2022-11-03T02:11:26;12.30;;;6.53;;
21564;SDS011;10943;48.738;9.320;2022-11-03T02:14:12;17.73;;;7.30;;
21564;SDS011;10943;48.738;9.320;2022-11-03T02:16:42;16.77;;;7.28;;
21564;SDS011;10943;48.738;9.320;2022-11-03T02:19:24;13.80;;;7.78;;
21564;SDS011;10943;48.738;9.320;2022-11-03T02:24:49;15.38;;;7.07;;
21564;SDS011;10943;48.738;9.320;2022-11-03T02:27:35;16.27;;;7.13;;
21564;SDS011;10943;48.738;9.320;2022-11-03T02:30:02;16.67;;;6.72;;
21564;SDS011;10943;48.738;9.320;2022-11-03T02:32:38;13.43;;;6.70;;
21564;SDS011;10943;48.738;9.320;2022-11-03T02:35:32;14.75;;;6.85;;
21564;SDS011;10943;48.738;9.320;2022-11-03T02:38:29;11.30;;;6.30;;
21564;SDS011;10943;48.738;9.320;2022-11-03T02:41:05;13.90;;;6.50;;
21564;SDS011;10943;48.738;9.320;2022-11-03T02:43:35;13.82;;;6.78;;
21564;SDS011;10943;48.738;9.320;2022-11-03T02:46:05;16.60;;;6.85;;
21564;SDS011;10943;48.738;9.320;2022-11-03T02:48:34;13.52;;;6.88;;
21564;SDS011;10943;48.738;9.320;2022-11-03T02:51:03;16.25;;;8.00;;
21564;SDS011;10943;48.738;9.320;2022-11-03T02:56:34;20.50;;;7.50;;
21564;SDS011;10943;48.738;9.320;2022-11-03T02:59:18;18.45;;;7.70;;
21564;SDS011;10943;48.738;9.320;2022-11-03T03:01:55;14.02;;;7.32;;
21564;SDS011;10943;48.738;9.320;2022-11-03T03:04:38;17.95;;;7.80;;
21564;SDS011;10943;48.738;9.320;2022-11-03T03:07:16;16.38;;;7.43;;
21564;SDS011;10943;48.738;9.320;2022-11-03T03:09:56;19.33;;;7.78;;
21564;SDS011;10943;48.738;9.320;2022-11-03T03:12:55;14.30;;;7.18;;
21564;SDS011;10943;48.738;9.320;2022-11-03T03:15:28;20.95;;;7.53;;
21564;SDS011;10943;48.738;9.320;2022-11-03T03:18:15;17.10;;;8.15;;
21564;SDS011;10943;48.738;9.320;2022-11-03T03:20:57;21.60;;;7.85;;
21564;SDS011;10943;48.738;9.320;2022-11-03T03:23:44;16.10;;;7.25;;
21564;SDS011;10943;48.738;9.320;2022-11-03T03:26:24;17.35;;;7.38;;
21564;SDS011;10943;48.738;9.320;2022-11-03T03:29:13;15.93;;;7.72;;
21564;SDS011;10943;48.738;9.320;2022-11-03T03:31:50;16.73;;;7.78;;
21564;SDS011;10943;48.738;9.320;2022-11-03T03:34:25;13.70;;;7.50;;
21564;SDS011;10943;48.738;9.320;2022-11-03T03:37:03;16.75;;;7.18;;
21564;SDS011;10943;48.738;9.320;2022-11-03T03:39:34;17.67;;;7.90;;
21564;SDS011;10943;48.738;9.320;2022-11-03T03:42:06;15.70;;;7.53;;
21564;SDS011;10943;48.738;9.320;2022-11-03T03:44:37;14.48;;;7.30;;
21564;SDS011;10943;48.738;9.320;2022-11-03T03:47:16;18.67;;;7.25;;
21564;SDS011;10943;48.738;9.320;2022-11-03T03:49:54;19.65;;;7.28;;
21564;SDS011;10943;48.738;9.320;2022-11-03T03:52:23;18.73;;;8.50;;
21564;SDS011;10943;48.738;9.320;2022-11-03T03:54:51;24.23;;;8.95;;
21564;SDS011;10943;48.738;9.320;2022-11-03T03:57:23;15.25;;;7.88;;
21564;SDS011;10943;48.738;9.320;2022-11-03T03:59:53;14.15;;;7.45;;
21564;SDS011;10943;48.738;9.320;2022-11-03T04:02:21;16.45;;;7.65;;
21564;SDS011;10943;48.738;9.320;2022-11-03T04:04:49;18.48;;;8.02;;
21564;SDS011;10943;48.738;9.320;2022-11-03T04:07:16;16.70;;;8.27;;
21564;SDS011;10943;48.738;9.320;2022-11-03T04:10:09;15.73;;;8.57;;
21564;SDS011;10943;48.738;9.320;2022-11-03T04:12:38;15.52;;;7.47;;
21564;SDS011;10943;48.738;9.320;2022-11-03T04:15:26;19.15;;;8.18;;
21564;SDS011;10943;48.738;9.320;2022-11-03T04:18:14;14.52;;;7.10;;
21564;SDS011;10943;48.738;9.320;2022-11-03T04:21:02;18.88;;;8.35;;
21564;SDS011;10943;48.738;9.320;2022-11-03T04:23:52;14.45;;;7.05;;
21564;SDS011;10943;48.738;9.320;2022-11-03T04:26:19;18.42;;;8.70;;
21564;SDS011;10943;48.738;9.320;2022-11-03T04:28:49;14.35;;;7.18;;
21564;SDS011;10943;48.738;9.320;2022-11-03T04:31:19;16.13;;;7.30;;
21564;SDS011;10943;48.738;9.320;2022-11-03T04:33:47;19.90;;;7.13;;
21564;SDS011;10943;48.738;9.320;2022-11-03T04:36:19;13.38;;;7.43;;
21564;SDS011;10943;48.738;9.320;2022-11-03T04:38:50;13.30;;;7.60;;
21564;SDS011;10943;48.738;9.320;2022-11-03T04:41:27;18.35;;;8.48;;
21564;SDS011;10943;48.738;9.320;2022-11-03T04:43:58;16.85;;;7.63;;
21564;SDS011;10943;48.738;9.320;2022-11-03T04:46:27;17.13;;;8.35;;
21564;SDS011;10943;48.738;9.320;2022-11-03T04:48:58;16.88;;;8.20;;
21564;SDS011;10943;48.738;9.320;2022-11-03T04:51:32;16.42;;;7.88;;
21564;SDS011;10943;48.738;9.320;2022-11-03T04:54:14;17.63;;;7.82;;
21564;SDS011;10943;48.738;9.320;2022-11-03T04:56:49;18.17;;;8.10;;
21564;SDS011;10943;48.738;9.320;2022-11-03T04:59:17;17.13;;;7.72;;
21564;SDS011;10943;48.738;9.320;2022-11-03T05:01:45;15.18;;;7.38;;
21564;SDS011;10943;48.738;9.320;2022-11-03T05:04:14;18.50;;;7.63;;
21564;SDS011;10943;48.738;9.320;2022-11-03T05:06:50;17.45;;;7.65;;
21564;SDS011;10943;48.738;9.320;2022-11-03T05:09:25;18.40;;;8.50;;
21564;SDS011;10943;48.738;9.320;2022-11-03T05:11:55;17.80;;;8.63;;
21564;SDS011;10943;48.738;9.320;2022-11-03T05:14:23;19.23;;;7.90;;
21564;SDS011;10943;48.738;9.320;2022-11-03T05:16:55;15.18;;;8.30;;
21564;SDS011;10943;48.738;9.320;2022-11-03T05:19:26;13.65;;;7.85;;
21564;SDS011;10943;48.738;9.320;2022-11-03T05:22:00;13.82;;;8.27;;
21564;SDS011;10943;48.738;9.320;2022-11-03T05:24:30;15.68;;;8.30;;
21564;SDS011;10943;48.738;9.320;2022-11-03T05:26:59;17.10;;;8.32;;
21564;SDS011;10943;48.738;9.320;2022-11-03T05:29:34;15.52;;;8.27;;
21564;SDS011;10943;48.738;9.320;2022-11-03T05:32:07;20.38;;;9.88;;
21564;SDS011;10943;48.738;9.320;2022-11-03T05:34:43;15.73;;;8.35;;
21564;SDS011;10943;48.738;9.320;2022-11-03T05:37:29;17.58;;;9.38;;
21564;SDS011;10943;48.738;9.320;2022-11-03T05:42:54;13.50;;;8.23;;
21564;SDS011;10943;48.738;9.320;2022-11-03T05:45:28;18.85;;;9.73;;
21564;SDS011;10943;48.738;9.320;2022-11-03T05:48:05;18.15;;;9.57;;
21564;SDS011;10943;48.738;9.320;2022-11-03T05:50:52;20.95;;;9.57;;
21564;SDS011;10943;48.738;9.320;2022-11-03T05:53:27;18.35;;;8.82;;
21564;SDS011;10943;48.738;9.320;2022-11-03T05:56:04;21.17;;;8.75;;
21564;SDS011;10943;48.738;9.320;2022-11-03T05:58:36;16.15;;;8.60;;
21564;SDS011;10943;48.738;9.320;2022-11-03T06:01:17;15.52;;;7.93;;
21564;SDS011;10943;48.738;9.320;2022-11-03T06:03:47;16.15;;;8.70;;
21564;SDS011;10943;48.738;9.320;2022-11-03T06:06:16;17.27;;;9.23;;
21564;SDS011;10943;48.738;9.320;2022-11-03T06:08:57;18.33;;;8.63;;
21564;SDS011;10943;48.738;9.320;2022-11-03T06:11:38;20.15;;;9.43;;
21564;SDS011;10943;48.738;9.320;2022-11-03T06:14:11;21.40;;;9.80;;
21564;SDS011;10943;48.738;9.320;2022-11-03T06:16:53;18.75;;;9.60;;
21564;SDS011;10943;48.738;9.320;2022-11-03T06:19:37;19.08;;;9.57;;
21564;SDS011;10943;48.738;9.320;2022-11-03T06:22:23;21.60;;;10.43;;
21564;SDS011;10943;48.738;9.320;2022-11-03T06:25:00;20.73;;;10.27;;
21564;SDS011;10943;48.738;9.320;2022-11-03T06:27:53;20.48;;;9.80;;
21564;SDS011;10943;48.738;9.320;2022-11-03T06:30:33;20.98;;;9.88;;
21564;SDS011;10943;48.738;9.320;2022-11-03T06:33:13;15.90;;;9.57;;
21564;SDS011;10943;48.738;9.320;2022-11-03T06:35:54;19.48;;;9.70;;
21564;SDS011;10943;48.738;9.320;2022-11-03T06:38:35;20.65;;;9.70;;
21564;SDS011;10943;48.738;9.320;2022-11-03T06:41:02;14.80;;;9.40;;
21564;SDS011;10943;48.738;9.320;2022-11-03T06:43:33;19.95;;;9.23;;
21564;SDS011;10943;48.738;9.320;2022-11-03T06:46:27;21.67;;;10.02;;
21564;SDS011;10943;48.738;9.320;2022-11-03T06:48:56;20.50;;;9.77;;
21564;SDS011;10943;48.738;9.320;2022-11-03T06:51:27;22.10;;;10.30;;
21564;SDS011;10943;48.738;9.320;2022-11-03T06:53:57;23.70;;;11.00;;
21564;SDS011;10943;48.738;9.320;2022-11-03T06:56:27;18.38;;;10.73;;
21564;SDS011;10943;48.738;9.320;2022-11-03T06:59:02;23.73;;;11.65;;
21564;SDS011;10943;48.738;9.320;2022-11-03T07:01:33;25.88;;;11.52;;
21564;SDS011;10943;48.738;9.320;2022-11-03T07:04:02;28.20;;;13.05;;
21564;SDS011;10943;48.738;9.320;2022-11-03T07:06:48;36.72;;;12.88;;
21564;SDS011;10943;48.738;9.320;2022-11-03T07:09:20;24.83;;;12.88;;
21564;SDS011;10943;48.738;9.320;2022-11-03T07:11:52;33.58;;;12.95;;
21564;SDS011;10943;48.738;9.320;2022-11-03T07:14:27;29.98;;;12.10;;
21564;SDS011;10943;48.738;9.320;2022-11-03T07:19:41;26.02;;;12.75;;
21564;SDS011;10943;48.738;9.320;2022-11-03T07:22:15;27.38;;;11.90;;
21564;SDS011;10943;48.738;9.320;2022-11-03T07:24:54;20.90;;;11.63;;
21564;SDS011;10943;48.738;9.320;2022-11-03T07:27:30;20.17;;;11.95;;
21564;SDS011;10943;48.738;9.320;2022-11-03T07:32:50;16.40;;;9.98;;
21564;SDS011;10943;48.738;9.320;2022-11-03T07:35:25;19.88;;;10.80;;
21564;SDS011;10943;48.738;9.320;2022-11-03T07:38:26;19.83;;;11.48;;
21564;SDS011;10943;48.738;9.320;2022-11-03T07:40:56;18.48;;;11.88;;
21564;SDS011;10943;48.738;9.320;2022-11-03T07:43:32;22.23;;;11.93;;
21564;SDS011;10943;48.738;9.320;2022-11-03T07:46:02;26.75;;;11.23;;
21564;SDS011;10943;48.738;9.320;2022-11-03T07:51:30;18.40;;;10.95;;
21564;SDS011;10943;48.738;9.320;2022-11-03T07:54:15;21.17;;;11.80;;
21564;SDS011;10943;48.738;9.320;2022-11-03T07:56:53;20.90;;;11.32;;
21564;SDS011;10943;48.738;9.320;2022-11-03T08:02:01;21.92;;;11.35;;
21564;SDS011;10943;48.738;9.320;2022-11-03T08:05:01;17.50;;;10.38;;
21564;SDS011;10943;48.738;9.320;2022-11-03T08:07:30;20.30;;;12.13;;
21564;SDS011;10943;48.738;9.320;2022-11-03T08:09:58;19.50;;;11.88;;
21564;SDS011;10943;48.738;9.320;2022-11-03T08:12:25;21.83;;;12.43;;
21564;SDS011;10943;48.738;9.320;2022-11-03T08:14:53;18.10;;;10.48;;
21564;SDS011;10943;48.738;9.320;2022-11-03T08:17:45;15.65;;;9.90;;
21564;SDS011;10943;48.738;9.320;2022-11-03T08:20:18;15.10;;;9.82;;
21564;SDS011;10943;48.738;9.320;2022-11-03T08:22:46;14.70;;;9.13;;
21564;SDS011;10943;48.738;9.320;2022-11-03T08:25:33;16.15;;;8.32;;
21564;SDS011;10943;48.738;9.320;2022-11-03T08:28:00;16.10;;;8.07;;
21564;SDS011;10943;48.738;9.320;2022-11-03T08:30:29;13.80;;;7.00;;
21564;SDS011;10943;48.738;9.320;2022-11-03T08:32:57;15.02;;;6.05;;
21564;SDS011;10943;48.738;9.320;2022-11-03T08:35:24;10.15;;;5.88;;
21564;SDS011;10943;48.738;9.320;2022-11-03T08:37:58;9.98;;;5.65;;
21564;SDS011;10943;48.738;9.320;2022-11-03T08:40:25;14.02;;;6.38;;
21564;SDS011;10943;48.738;9.320;2022-11-03T08:42:53;10.32;;;5.40;;
21564;SDS011;10943;48.738;9.320;2022-11-03T08:45:20;12.07;;;5.07;;
21564;SDS011;10943;48.738;9.320;2022-11-03T08:47:47;8.45;;;4.90;;
21564;SDS011;10943;48.738;9.320;2022-11-03T08:50:14;13.23;;;5.47;;
21564;SDS011;10943;48.738;9.320;2022-11-03T08:52:42;10.77;;;5.25;;
21564;SDS011;10943;48.738;9.320;2022-11-03T08:55:09;11.20;;;5.10;;
21564;SDS011;10943;48.738;9.320;2022-11-03T08:57:37;8.93;;;5.07;;
21564;SDS011;10943;48.738;9.320;2022-11-03T09:00:04;13.18;;;5.50;;
21564;SDS011;10943;48.738;9.320;2022-11-03T09:02:34;9.82;;;4.75;;
21564;SDS011;10943;48.738;9.320;2022-11-03T09:05:01;9.88;;;5.15;;
21564;SDS011;10943;48.738;9.320;2022-11-03T09:07:30;9.45;;;4.90;;
21564;SDS011;10943;48.738;9.320;2022-11-03T09:10:17;8.35;;;4.78;;
21564;SDS011;10943;48.738;9.320;2022-11-03T09:12:50;9.07;;;4.80;;
21564;SDS011;10943;48.738;9.320;2022-11-03T09:15:18;9.95;;;5.95;;
21564;SDS011;10943;48.738;9.320;2022-11-03T09:17:46;8.63;;;5.10;;
21564;SDS011;10943;48.738;9.320;2022-11-03T09:20:13;12.15;;;4.82;;
21564;SDS011;10943;48.738;9.320;2022-11-03T09:22:40;9.20;;;5.00;;
21564;SDS011;10943;48.738;9.320;2022-11-03T09:25:08;8.48;;;4.63;;
21564;SDS011;10943;48.738;9.320;2022-11-03T09:27:36;10.18;;;5.18;;
21564;SDS011;10943;48.738;9.320;2022-11-03T09:30:03;9.70;;;5.00;;
21564;SDS011;10943;48.738;9.320;2022-11-03T09:32:39;11.52;;;5.45;;
21564;SDS011;10943;48.738;9.320;2022-11-03T09:35:07;10.05;;;5.40;;
21564;SDS011;10943;48.738;9.320;2022-11-03T09:37:35;11.60;;;5.03;;
21564;SDS011;10943;48.738;9.320;2022-11-03T09:40:02;9.82;;;5.32;;
21564;SDS011;10943;48.738;9.320;2022-11-03T09:42:31;10.77;;;5.20;;
21564;SDS011;10943;48.738;9.320;2022-11-03T09:45:00;10.13;;;4.88;;
21564;SDS011;10943;48.738;9.320;2022-11-03T09:47:31;7.60;;;4.65;;
21564;SDS011;10943;48.738;9.320;2022-11-03T09:50:10;7.97;;;4.40;;
21564;SDS011;10943;48.738;9.320;2022-11-03T09:52:47;9.05;;;4.40;;
21564;SDS011;10943;48.738;9.320;2022-11-03T09:55:19;12.68;;;6.20;;
21564;SDS011;10943;48.738;9.320;2022-11-03T09:57:51;9.55;;;5.22;;
21564;SDS011;10943;48.738;9.320;2022-11-03T10:00:28;9.20;;;4.95;;
21564;SDS011;10943;48.738;9.320;2022-11-03T10:02:56;11.52;;;5.47;;
21564;SDS011;10943;48.738;9.320;2022-11-03T10:05:25;12.65;;;5.20;;
21564;SDS011;10943;48.738;9.320;2022-11-03T10:07:58;12.65;;;4.97;;
21564;SDS011;10943;48.738;9.320;2022-11-03T10:10:33;10.38;;;5.05;;
21564;SDS011;10943;48.738;9.320;2022-11-03T10:13:01;8.45;;;4.88;;
21564;SDS011;10943;48.738;9.320;2022-11-03T10:15:35;10.25;;;4.63;;
21564;SDS011;10943;48.738;9.320;2022-11-03T10:18:04;9.25;;;4.43;;
21564;SDS011;10943;48.738;9.320;2022-11-03T10:20:35;9.75;;;5.40;;
21564;SDS011;10943;48.738;9.320;2022-11-03T10:23:02;10.02;;;4.90;;
21564;SDS011;10943;48.738;9.320;2022-11-03T10:28:15;9.60;;;5.15;;
21564;SDS011;10943;48.738;9.320;2022-11-03T10:33:49;11.82;;;5.57;;
21564;SDS011;10943;48.738;9.320;2022-11-03T10:39:20;11.15;;;5.43;;
21564;SDS011;10943;48.738;9.320;2022-11-03T10:41:57;10.18;;;5.30;;
21564;SDS011;10943;48.738;9.320;2022-11-03T10:44:26;13.93;;;5.85;;
21564;SDS011;10943;48.738;9.320;2022-11-03T10:49:30;12.15;;;5.72;;
21564;SDS011;10943;48.738;9.320;2022-11-03T10:54:52;10.77;;;5.18;;
21564;SDS011;10943;48.738;9.320;2022-11-03T10:57:24;10.50;;;5.25;;
21564;SDS011;10943;48.738;9.320;2022-11-03T10:59:59;12.98;;;5.35;;
21564;SDS011;10943;48.738;9.320;2022-11-03T11:02:28;13.88;;;5.53;;
21564;SDS011;10943;48.738;9.320;2022-11-03T11:05:07;10.95;;;5.35;;
21564;SDS011;10943;48.738;9.320;2022-11-03T11:07:45;12.63;;;5.82;;
21564;SDS011;10943;48.738;9.320;2022-11-03T11:10:18;13.25;;;5.85;;
21564;SDS011;10943;48.738;9.320;2022-11-03T11:15:46;12.43;;;5.10;;
21564;SDS011;10943;48.738;9.320;2022-11-03T11:20:56;11.80;;;4.82;;
21564;SDS011;10943;48.738;9.320;2022-11-03T11:44:55;10.15;;;4.55;;
21564;SDS011;10943;48.738;9.320;2022-11-03T11:47:47;12.23;;;5.20;;
21564;SDS011;10943;48.738;9.320;2022-11-03T11:50:19;10.07;;;4.90;;
21564;SDS011;10943;48.738;9.320;2022-11-03T12:04:16;9.82;;;4.38;;
21564;SDS011;10943;48.738;9.320;2022-11-03T12:06:56;9.77;;;4.28;;
21564;SDS011;10943;48.738;9.320;2022-11-03T12:09:25;10.90;;;4.85;;
21564;SDS011;10943;48.738;9.320;2022-11-03T12:11:58;9.00;;;4.30;;
21564;SDS011;10943;48.738;9.320;2022-11-03T12:14:36;9.02;;;4.85;;
21564;SDS011;10943;48.738;9.320;2022-11-03T12:24:49;10.10;;;4.60;;
21564;SDS011;10943;48.738;9.320;2022-11-03T12:29:56;9.60;;;4.60;;
21564;SDS011;10943;48.738;9.320;2022-11-03T12:32:27;11.50;;;4.65;;
21564;SDS011;10943;48.738;9.320;2022-11-03T12:35:04;11.88;;;4.57;;
21564;SDS011;10943;48.738;9.320;2022-11-03T12:37:35;9.77;;;4.65;;
21564;SDS011;10943;48.738;9.320;2022-11-03T12:40:03;10.45;;;4.70;;
21564;SDS011;10943;48.738;9.320;2022-11-03T12:42:32;14.68;;;4.63;;
21564;SDS011;10943;48.738;9.320;2022-11-03T12:45:00;11.60;;;4.93;;
21564;SDS011;10943;48.738;9.320;2022-11-03T12:47:28;12.98;;;4.78;;
21564;SDS011;10943;48.738;9.320;2022-11-03T12:49:57;8.30;;;4.93;;
21564;SDS011;10943;48.738;9.320;2022-11-03T12:52:25;11.60;;;4.60;;
21564;SDS011;10943;48.738;9.320;2022-11-03T12:54:52;10.95;;;5.45;;
21564;SDS011;10943;48.738;9.320;2022-11-03T12:57:19;10.63;;;5.13;;
21564;SDS011;10943;48.738;9.320;2022-11-03T12:59:46;14.13;;;5.63;;
21564;SDS011;10943;48.738;9.320;2022-11-03T13:02:13;9.40;;;5.00;;
21564;SDS011;10943;48.738;9.320;2022-11-03T13:04:41;11.30;;;5.70;;
21564;SDS011;10943;48.738;9.320;2022-11-03T13:07:08;11.00;;;5.40;;
21564;SDS011;10943;48.738;9.320;2022-11-03T13:09:36;13.55;;;6.00;;
21564;SDS011;10943;48.738;9.320;2022-11-03T13:12:03;12.30;;;6.18;;
21564;SDS011;10943;48.738;9.320;2022-11-03T13:14:49;10.57;;;6.05;;
21564;SDS011;10943;48.738;9.320;2022-11-03T13:17:17;12.60;;;6.53;;
21564;SDS011;10943;48.738;9.320;2022-11-03T13:19:44;12.23;;;6.15;;
21564;SDS011;10943;48.738;9.320;2022-11-03T13:22:12;13.10;;;6.13;;
21564;SDS011;10943;48.738;9.320;2022-11-03T13:24:40;11.95;;;6.15;;
21564;SDS011;10943;48.738;9.320;2022-11-03T13:27:08;12.63;;;5.70;;
21564;SDS011;10943;48.738;9.320;2022-11-03T13:29:35;10.93;;;6.47;;
21564;SDS011;10943;48.738;9.320;2022-11-03T13:32:03;12.65;;;6.40;;
21564;SDS011;10943;48.738;9.320;2022-11-03T13:34:31;13.90;;;7.10;;
21564;SDS011;10943;48.738;9.320;2022-11-03T13:36:59;14.52;;;6.43;;
21564;SDS011;10943;48.738;9.320;2022-11-03T13:39:28;13.55;;;7.05;;
21564;SDS011;10943;48.738;9.320;2022-11-03T13:41:55;15.38;;;8.00;;
21564;SDS011;10943;48.738;9.320;2022-11-03T13:44:23;16.38;;;6.95;;
21564;SDS011;10943;48.738;9.320;2022-11-03T13:46:50;13.55;;;7.57;;
21564;SDS011;10943;48.738;9.320;2022-11-03T13:49:17;13.43;;;6.68;;
21564;SDS011;10943;48.738;9.320;2022-11-03T13:52:06;16.15;;;6.70;;
21564;SDS011;10943;48.738;9.320;2022-11-03T13:54:34;13.00;;;6.45;;
21564;SDS011;10943;48.738;9.320;2022-11-03T13:57:22;12.95;;;7.10;;
21564;SDS011;10943;48.738;9.320;2022-11-03T14:00:10;14.35;;;6.60;;
21564;SDS011;10943;48.738;9.320;2022-11-03T14:02:39;16.90;;;6.68;;
21564;SDS011;10943;48.738;9.320;2022-11-03T14:05:27;11.02;;;5.80;;
21564;SDS011;10943;48.738;9.320;2022-11-03T14:07:54;14.73;;;6.57;;
21564;SDS011;10943;48.738;9.320;2022-11-03T14:10:22;15.35;;;6.43;;
21564;SDS011;10943;48.738;9.320;2022-11-03T14:12:49;17.70;;;9.52;;
21564;SDS011;10943;48.738;9.320;2022-11-03T14:15:17;15.38;;;7.10;;
21564;SDS011;10943;48.738;9.320;2022-11-03T14:17:45;13.25;;;7.28;;
21564;SDS011;10943;48.738;9.320;2022-11-03T14:20:13;19.90;;;12.90;;
21564;SDS011;10943;48.738;9.320;2022-11-03T14:22:41;18.40;;;8.50;;
21564;SDS011;10943;48.738;9.320;2022-11-03T14:25:08;14.13;;;7.10;;
21564;SDS011;10943;48.738;9.320;2022-11-03T14:27:36;16.20;;;9.35;;
21564;SDS011;10943;48.738;9.320;2022-11-03T14:30:03;18.17;;;8.15;;
21564;SDS011;10943;48.738;9.320;2022-11-03T14:32:33;15.95;;;8.05;;
21564;SDS011;10943;48.738;9.320;2022-11-03T14:35:00;18.30;;;7.95;;
21564;SDS011;10943;48.738;9.320;2022-11-03T14:37:29;17.67;;;7.13;;
21564;SDS011;10943;48.738;9.320;2022-11-03T14:39:56;15.55;;;7.60;;
21564;SDS011;10943;48.738;9.320;2022-11-03T14:42:24;14.30;;;7.63;;
21564;SDS011;10943;48.738;9.320;2022-11-03T14:44:52;18.95;;;7.70;;
21564;SDS011;10943;48.738;9.320;2022-11-03T14:47:20;11.85;;;7.38;;
21564;SDS011;10943;48.738;9.320;2022-11-03T14:49:47;15.43;;;7.63;;
21564;SDS011;10943;48.738;9.320;2022-11-03T14:52:15;20.08;;;8.30;;
21564;SDS011;10943;48.738;9.320;2022-11-03T14:54:43;16.58;;;7.85;;
21564;SDS011;10943;48.738;9.320;2022-11-03T14:57:11;17.75;;;8.43;;
21564;SDS011;10943;48.738;9.320;2022-11-03T14:59:38;19.42;;;8.00;;
21564;SDS011;10943;48.738;9.320;2022-11-03T15:02:06;14.57;;;7.30;;
21564;SDS011;10943;48.738;9.320;2022-11-03T15:04:34;15.70;;;7.95;;
21564;SDS011;10943;48.738;9.320;2022-11-03T15:07:01;15.68;;;7.95;;
21564;SDS011;10943;48.738;9.320;2022-11-03T15:09:29;18.88;;;7.97;;
21564;SDS011;10943;48.738;9.320;2022-11-03T15:11:56;16.80;;;8.82;;
21564;SDS011;10943;48.738;9.320;2022-11-03T15:14:24;23.05;;;9.85;;
21564;SDS011;10943;48.738;9.320;2022-11-03T15:16:51;17.58;;;9.80;;
21564;SDS011;10943;48.738;9.320;2022-11-03T15:19:19;29.75;;;14.20;;
21564;SDS011;10943;48.738;9.320;2022-11-03T15:21:48;38.05;;;17.77;;
21564;SDS011;10943;48.738;9.320;2022-11-03T15:24:15;25.50;;;9.77;;
21564;SDS011;10943;48.738;9.320;2022-11-03T15:27:03;19.00;;;8.68;;
21564;SDS011;10943;48.738;9.320;2022-11-03T15:29:30;18.63;;;8.98;;
21564;SDS011;10943;48.738;9.320;2022-11-03T15:31:58;22.13;;;9.18;;
21564;SDS011;10943;48.738;9.320;2022-11-03T15:34:25;22.25;;;8.93;;
21564;SDS011;10943;48.738;9.320;2022-11-03T15:36:53;14.70;;;7.90;;
21564;SDS011;10943;48.738;9.320;2022-11-03T15:39:21;22.88;;;8.13;;
21564;SDS011;10943;48.738;9.320;2022-11-03T15:41:48;16.83;;;8.23;;
21564;SDS011;10943;48.738;9.320;2022-11-03T15:44:16;17.23;;;7.63;;
21564;SDS011;10943;48.738;9.320;2022-11-03T15:46:43;19.13;;;8.48;;
21564;SDS011;10943;48.738;9.320;2022-11-03T15:49:11;19.55;;;8.52;;
21564;SDS011;10943;48.738;9.320;2022-11-03T15:51:38;14.82;;;8.23;;
21564;SDS011;10943;48.738;9.320;2022-11-03T15:54:06;17.10;;;8.43;;
21564;SDS011;10943;48.738;9.320;2022-11-03T15:56:34;18.17;;;8.90;;
21564;SDS011;10943;48.738;9.320;2022-11-03T15:59:02;13.57;;;7.60;;
21564;SDS011;10943;48.738;9.320;2022-11-03T16:01:29;17.00;;;8.32;;
21564;SDS011;10943;48.738;9.320;2022-11-03T16:03:57;17.60;;;7.65;;
21564;SDS011;10943;48.738;9.320;2022-11-03T16:06:27;18.27;;;8.63;;
21564;SDS011;10943;48.738;9.320;2022-11-03T16:09:15;19.45;;;9.85;;
21564;SDS011;10943;48.738;9.320;2022-11-03T16:11:42;15.40;;;9.05;;
21564;SDS011;10943;48.738;9.320;2022-11-03T16:14:09;19.75;;;10.85;;
21564;SDS011;10943;48.738;9.320;2022-11-03T16:16:37;22.20;;;11.82;;
21564;SDS011;10943;48.738;9.320;2022-11-03T16:19:06;26.05;;;11.32;;
21564;SDS011;10943;48.738;9.320;2022-11-03T16:21:35;22.30;;;10.52;;
21564;SDS011;10943;48.738;9.320;2022-11-03T16:24:03;23.20;;;10.38;;
21564;SDS011;10943;48.738;9.320;2022-11-03T16:26:31;19.45;;;9.88;;
21564;SDS011;10943;48.738;9.320;2022-11-03T16:28:59;19.35;;;10.15;;
21564;SDS011;10943;48.738;9.320;2022-11-03T16:31:26;16.75;;;9.75;;
21564;SDS011;10943;48.738;9.320;2022-11-03T16:33:54;17.27;;;8.90;;